createdAt,value
2019-05-25T00:00:34.942Z,14.25
2019-05-25T00:03:17.351Z,12.75
2019-05-25T00:05:47.711Z,12.98
2019-05-25T00:08:17.895Z,13.05
2019-05-25T00:10:48.110Z,17.73
2019-05-25T00:13:18.316Z,13.32
2019-05-25T00:15:48.574Z,13.35
2019-05-25T00:18:18.766Z,13.75
2019-05-25T00:20:48.978Z,13.15
2019-05-25T00:23:19.244Z,18.57
2019-05-25T00:25:49.523Z,18.57
2019-05-25T00:28:19.718Z,17.95
2019-05-25T00:30:50.011Z,16.30
2019-05-25T00:33:20.261Z,18.57
2019-05-25T00:35:50.538Z,13.22
2019-05-25T00:38:20.803Z,21.40
2019-05-25T00:40:51.026Z,14.93
2019-05-25T00:43:21.224Z,16.27
2019-05-25T00:45:51.472Z,20.97
2019-05-25T00:48:21.707Z,19.07
2019-05-25T00:50:52.806Z,13.45
2019-05-25T00:53:22.990Z,12.80
2019-05-25T00:55:53.218Z,12.90
2019-05-25T00:58:23.424Z,18.00
2019-05-25T01:00:53.650Z,16.23
2019-05-25T01:06:10.352Z,14.40
2019-05-25T01:08:41.130Z,17.57
2019-05-25T01:11:11.489Z,12.98
2019-05-25T01:13:41.752Z,16.57
2019-05-25T01:16:13.305Z,16.25
2019-05-25T01:18:43.494Z,17.20
2019-05-25T01:21:14.097Z,16.00
2019-05-25T01:23:44.423Z,18.83
2019-05-25T01:26:14.636Z,22.58
2019-05-25T01:28:44.828Z,19.55
2019-05-25T01:31:16.036Z,21.97
2019-05-25T01:33:46.303Z,11.60
2019-05-25T01:36:16.527Z,24.37
2019-05-25T01:38:46.703Z,21.82
2019-05-25T01:41:16.924Z,20.30
2019-05-25T01:43:47.106Z,16.90
2019-05-25T01:46:17.344Z,14.15
2019-05-25T01:48:47.539Z,15.13
2019-05-25T01:51:17.758Z,16.67
2019-05-25T01:53:47.940Z,14.25
2019-05-25T01:56:18.146Z,16.00
2019-05-25T01:58:48.355Z,15.50
2019-05-25T02:01:18.567Z,14.80
2019-05-25T02:03:48.752Z,16.40
2019-05-25T02:06:18.958Z,16.40
2019-05-25T02:08:49.156Z,19.65
2019-05-25T02:11:19.366Z,18.55
2019-05-25T02:13:49.699Z,16.95
2019-05-25T02:16:20.055Z,14.78
2019-05-25T02:19:26.852Z,20.33
2019-05-25T02:21:57.076Z,17.17
2019-05-25T02:24:27.271Z,17.12
2019-05-25T02:26:57.467Z,17.15
2019-05-25T02:29:27.661Z,18.25
2019-05-25T02:31:58.679Z,18.50
2019-05-25T02:34:29.131Z,15.35
2019-05-25T02:36:59.349Z,20.13
2019-05-25T02:39:29.562Z,19.60
2019-05-25T02:41:59.972Z,16.85
2019-05-25T02:44:30.170Z,21.33
2019-05-25T02:47:00.483Z,18.80
2019-05-25T02:49:30.850Z,10.60
2019-05-25T02:52:01.044Z,20.23
2019-05-25T02:54:31.255Z,23.95
2019-05-25T02:57:01.457Z,15.45
2019-05-25T02:59:31.658Z,15.60
2019-05-25T03:02:02.016Z,16.65
2019-05-25T03:04:32.375Z,16.77
2019-05-25T03:07:02.550Z,17.05
2019-05-25T03:09:32.769Z,20.30
2019-05-25T03:12:02.947Z,17.50
2019-05-25T03:14:33.162Z,12.68
2019-05-25T03:17:03.423Z,15.05
2019-05-25T03:19:51.823Z,13.05
2019-05-25T03:22:22.113Z,17.07
2019-05-25T03:24:52.318Z,18.17
2019-05-25T03:27:22.536Z,15.70
2019-05-25T03:29:52.744Z,17.27
2019-05-25T03:32:23.019Z,11.28
2019-05-25T03:34:53.495Z,17.42
2019-05-25T03:37:23.768Z,15.40
2019-05-25T03:39:53.952Z,17.73
2019-05-25T03:42:24.172Z,21.20
2019-05-25T03:44:55.620Z,18.52
2019-05-25T03:47:25.835Z,17.07
2019-05-25T03:49:56.020Z,21.55
2019-05-25T03:52:26.254Z,15.90
2019-05-25T03:54:56.500Z,17.52
2019-05-25T03:57:26.785Z,17.17
2019-05-25T03:59:56.963Z,31.55
2019-05-25T04:02:27.189Z,21.82
2019-05-25T04:04:57.682Z,15.45
2019-05-25T04:07:27.884Z,18.20
2019-05-25T04:09:58.074Z,13.70
2019-05-25T04:12:28.420Z,16.65
2019-05-25T04:14:58.599Z,15.50
2019-05-25T04:17:28.831Z,16.37
2019-05-25T04:19:59.019Z,16.55
2019-05-25T04:22:29.254Z,17.37
2019-05-25T04:24:59.511Z,15.30
2019-05-25T04:27:29.711Z,17.00
2019-05-25T04:29:59.946Z,14.20
2019-05-25T04:32:30.152Z,16.05
2019-05-25T04:35:00.337Z,20.45
2019-05-25T04:37:30.537Z,12.07
2019-05-25T04:40:00.741Z,19.70
2019-05-25T04:42:31.214Z,13.93
2019-05-25T04:45:01.477Z,17.57
2019-05-25T04:47:31.791Z,16.30
2019-05-25T04:50:01.979Z,21.70
2019-05-25T04:52:32.258Z,13.72
2019-05-25T04:55:02.458Z,13.62
2019-05-25T04:57:32.815Z,15.60
2019-05-25T05:00:04.144Z,13.65
2019-05-25T05:02:34.353Z,11.08
2019-05-25T05:05:38.077Z,13.83
2019-05-25T05:08:08.368Z,18.77
2019-05-25T05:10:38.595Z,13.32
2019-05-25T05:13:08.808Z,13.25
2019-05-25T05:15:39.073Z,16.12
2019-05-25T05:18:09.481Z,12.88
2019-05-25T05:20:39.752Z,56.63
2019-05-25T05:23:09.988Z,121.72
2019-05-25T05:25:40.248Z,66.35
2019-05-25T05:28:10.534Z,30.15
2019-05-25T05:30:40.728Z,15.25
2019-05-25T05:33:10.931Z,21.60
2019-05-25T05:35:41.119Z,13.03
2019-05-25T05:38:11.445Z,10.65
2019-05-25T05:40:41.967Z,15.55
2019-05-25T05:43:12.180Z,14.47
2019-05-25T05:45:43.089Z,10.30
2019-05-25T05:48:13.635Z,15.85
2019-05-25T05:50:43.995Z,11.15
2019-05-25T05:53:14.210Z,10.85
2019-05-25T05:55:44.417Z,10.80
2019-05-25T05:58:14.646Z,9.95
2019-05-25T06:00:44.837Z,7.45
2019-05-25T06:03:15.046Z,6.87
2019-05-25T06:05:45.223Z,7.25
2019-05-25T06:08:15.446Z,6.67
2019-05-25T06:10:45.749Z,10.03
2019-05-25T06:13:16.931Z,4.55
2019-05-25T06:15:47.107Z,7.37
2019-05-25T06:18:17.376Z,8.10
2019-05-25T06:20:47.560Z,5.08
2019-05-25T06:23:17.763Z,6.83
2019-05-25T06:25:47.933Z,6.65
2019-05-25T06:28:22.159Z,4.55
2019-05-25T06:30:50.003Z,4.45
2019-05-25T06:33:20.211Z,4.22
2019-05-25T06:38:21.028Z,3.52
2019-05-25T06:40:51.382Z,3.07
2019-05-25T06:43:21.619Z,6.05
2019-05-25T06:45:51.795Z,3.52
2019-05-25T06:48:21.999Z,4.53
2019-05-25T06:50:52.184Z,7.67
2019-05-25T06:53:22.494Z,3.58
2019-05-25T06:55:52.709Z,2.37
2019-05-25T06:58:22.910Z,4.05
2019-05-25T07:00:53.146Z,2.30
2019-05-25T07:03:23.389Z,4.20
2019-05-25T07:05:53.698Z,2.77
2019-05-25T07:08:23.927Z,6.58
2019-05-25T07:10:54.107Z,4.70
2019-05-25T07:13:24.394Z,7.08
2019-05-25T07:15:54.573Z,3.17
2019-05-25T07:18:24.771Z,4.05
2019-05-25T07:21:11.534Z,5.40
2019-05-25T07:23:41.781Z,4.90
2019-05-25T07:26:11.950Z,7.12
2019-05-25T07:28:42.156Z,2.42
2019-05-25T07:31:12.653Z,3.20
2019-05-25T07:33:42.898Z,4.03
2019-05-25T07:36:13.160Z,2.75
2019-05-25T07:38:43.340Z,4.70
2019-05-25T07:41:13.625Z,5.12
2019-05-25T07:43:43.877Z,2.25
2019-05-25T07:46:17.061Z,6.10
2019-05-25T07:48:46.283Z,2.62
2019-05-25T07:51:16.482Z,5.50
2019-05-25T07:53:46.659Z,9.93
2019-05-25T07:56:16.902Z,3.42
2019-05-25T07:58:47.129Z,4.50
2019-05-25T08:01:17.335Z,8.53
2019-05-25T08:03:47.642Z,6.05
2019-05-25T08:06:17.948Z,5.03
2019-05-25T08:08:49.658Z,3.47
2019-05-25T08:11:19.854Z,5.05
2019-05-25T08:13:50.051Z,4.28
2019-05-25T08:16:20.234Z,2.85
2019-05-25T08:18:50.440Z,3.62
2019-05-25T08:21:20.617Z,5.35
2019-05-25T08:23:50.848Z,3.62
2019-05-25T08:26:21.105Z,3.22
2019-05-25T08:28:51.564Z,3.52
2019-05-25T08:31:21.751Z,5.23
2019-05-25T08:33:51.964Z,7.25
2019-05-25T08:36:22.130Z,2.83
2019-05-25T08:39:31.240Z,6.17
2019-05-25T08:42:01.425Z,4.42
2019-05-25T08:44:31.635Z,4.53
2019-05-25T08:47:01.839Z,5.20
2019-05-25T08:49:32.035Z,6.95
2019-05-25T08:52:04.170Z,4.20
2019-05-25T08:54:34.159Z,8.45
2019-05-25T08:57:04.463Z,5.87
2019-05-25T08:59:34.671Z,3.67
2019-05-25T09:02:04.901Z,3.92
2019-05-25T09:04:35.234Z,2.62
2019-05-25T09:07:05.436Z,4.20
2019-05-25T09:09:35.638Z,3.95
2019-05-25T09:12:05.826Z,4.92
2019-05-25T09:14:36.020Z,4.85
2019-05-25T09:17:06.273Z,5.45
2019-05-25T09:19:36.473Z,5.50
2019-05-25T09:22:06.706Z,7.30
2019-05-25T09:24:36.951Z,5.10
2019-05-25T09:27:07.347Z,5.53
2019-05-25T09:29:37.698Z,5.33
2019-05-25T09:32:07.875Z,5.10
2019-05-25T09:37:08.465Z,2.33
2019-05-25T09:39:38.680Z,4.10
2019-05-25T09:42:08.993Z,8.25
2019-05-25T09:44:39.192Z,8.33
2019-05-25T09:47:09.395Z,6.03
2019-05-25T09:49:39.572Z,5.12
2019-05-25T09:52:09.779Z,3.52
2019-05-25T09:54:39.961Z,5.60
2019-05-25T09:57:10.228Z,4.30
2019-05-25T09:59:41.569Z,5.30
2019-05-25T10:02:13.450Z,2.33
2019-05-25T10:04:44.472Z,2.77
2019-05-25T10:07:14.748Z,2.97
2019-05-25T10:09:45.008Z,5.13
2019-05-25T10:12:16.278Z,3.25
2019-05-25T10:14:47.685Z,3.77
2019-05-25T10:17:17.886Z,5.03
2019-05-25T10:19:48.075Z,3.70
2019-05-25T10:22:18.381Z,4.07
2019-05-25T10:24:48.579Z,5.00
2019-05-25T10:27:18.859Z,4.00
2019-05-25T10:29:49.040Z,5.73
2019-05-25T10:32:19.367Z,5.77
2019-05-25T10:34:49.590Z,4.67
2019-05-25T10:37:19.805Z,5.60
2019-05-25T10:39:50.106Z,4.53
2019-05-25T10:42:20.341Z,8.60
2019-05-25T10:44:50.543Z,7.70
2019-05-25T10:47:20.727Z,9.03
2019-05-25T10:49:51.046Z,2.90
2019-05-25T10:52:21.294Z,5.70
2019-05-25T10:54:51.590Z,5.87
2019-05-25T10:57:21.771Z,3.80
2019-05-25T10:59:53.427Z,6.72
2019-05-25T11:02:24.839Z,6.30
2019-05-25T11:04:55.381Z,4.90
2019-05-25T11:07:25.616Z,3.47
2019-05-25T11:09:55.904Z,6.20
2019-05-25T11:12:26.245Z,6.33
2019-05-25T11:14:57.429Z,4.90
2019-05-25T11:17:27.860Z,4.92
2019-05-25T11:19:58.207Z,6.72
2019-05-25T11:22:28.469Z,5.87
2019-05-25T11:24:58.862Z,3.83
2019-05-25T11:27:29.171Z,4.47
2019-05-25T11:30:08.639Z,5.00
2019-05-25T11:32:31.275Z,7.97
2019-05-25T11:35:01.477Z,6.22
2019-05-25T11:37:31.675Z,4.07
2019-05-25T11:40:01.883Z,5.47
2019-05-25T11:42:32.096Z,4.42
2019-05-25T11:45:02.487Z,6.07
2019-05-25T11:47:32.854Z,5.42
2019-05-25T11:50:04.292Z,13.23
2019-05-25T11:52:34.646Z,4.20
2019-05-25T11:55:10.427Z,4.80
2019-05-25T11:57:40.637Z,5.83
2019-05-25T12:00:24.846Z,7.07
2019-05-25T12:02:47.391Z,5.95
2019-05-25T12:05:17.564Z,5.95
2019-05-25T12:07:47.771Z,4.97
2019-05-25T12:10:55.650Z,6.43
2019-05-25T12:13:25.942Z,5.28
2019-05-25T12:15:56.193Z,6.73
2019-05-25T12:18:26.394Z,5.13
2019-05-25T12:20:56.572Z,5.73
2019-05-25T12:23:26.779Z,5.83
2019-05-25T12:26:16.574Z,6.10
2019-05-25T12:28:46.860Z,6.15
2019-05-25T12:31:17.050Z,3.98
2019-05-25T12:33:47.255Z,6.22
2019-05-25T12:36:17.510Z,4.55
2019-05-25T12:38:47.708Z,6.22
2019-05-25T12:41:17.936Z,4.15
2019-05-25T12:43:48.189Z,6.85
2019-05-25T12:46:18.373Z,6.62
2019-05-25T12:48:48.578Z,4.75
2019-05-25T12:51:18.756Z,7.00
2019-05-25T12:53:48.976Z,7.28
2019-05-25T12:56:19.215Z,10.00
2019-05-25T13:01:20.466Z,4.83
2019-05-25T13:03:50.823Z,4.87
2019-05-25T13:06:21.007Z,4.00
2019-05-25T13:08:51.379Z,3.45
2019-05-25T13:11:21.780Z,9.55
2019-05-25T13:13:52.024Z,5.83
2019-05-25T13:16:22.206Z,6.47
2019-05-25T13:18:53.392Z,8.00
2019-05-25T13:21:23.585Z,8.03
2019-05-25T13:23:54.136Z,7.28
2019-05-25T13:26:24.340Z,3.98
2019-05-25T13:28:54.542Z,2.30
2019-05-25T13:31:24.797Z,3.80
2019-05-25T13:33:55.075Z,5.20
2019-05-25T13:36:25.320Z,4.33
2019-05-25T13:38:55.658Z,6.05
2019-05-25T13:41:25.851Z,2.97
2019-05-25T13:43:56.057Z,4.70
2019-05-25T13:46:26.276Z,7.65
2019-05-25T13:48:56.527Z,5.78
2019-05-25T13:51:26.755Z,6.75
2019-05-25T13:53:56.952Z,4.10
2019-05-25T13:57:07.361Z,4.22
2019-05-25T13:59:37.630Z,6.30
2019-05-25T14:02:08.787Z,4.22
2019-05-25T14:04:39.234Z,9.27
2019-05-25T14:07:09.511Z,3.65
2019-05-25T14:09:39.779Z,4.22
2019-05-25T14:12:10.112Z,4.93
2019-05-25T14:14:40.311Z,7.50
2019-05-25T14:17:10.556Z,4.25
2019-05-25T14:19:41.610Z,4.37
2019-05-25T14:22:11.927Z,3.80
2019-05-25T14:24:42.127Z,6.62
2019-05-25T14:27:32.078Z,5.35
2019-05-25T14:30:02.281Z,7.33
2019-05-25T14:32:33.735Z,9.38
2019-05-25T14:35:04.099Z,7.60
2019-05-25T14:37:34.283Z,8.80
2019-05-25T14:40:11.089Z,10.48
2019-05-25T14:46:31.055Z,6.97
2019-05-25T14:49:01.459Z,6.28
2019-05-25T14:51:32.087Z,7.05
2019-05-25T14:54:02.292Z,8.08
2019-05-25T14:56:52.527Z,7.10
2019-05-25T14:59:23.031Z,13.60
2019-05-25T15:02:01.996Z,5.78
2019-05-25T15:04:25.288Z,7.83
2019-05-25T15:06:55.494Z,8.68
2019-05-25T15:09:25.715Z,4.95
2019-05-25T15:15:46.559Z,4.75
2019-05-25T15:18:16.771Z,5.47
2019-05-25T15:20:47.135Z,3.72
2019-05-25T15:23:36.781Z,29.53
2019-05-25T15:26:07.021Z,5.60
2019-05-25T15:28:37.339Z,6.75
2019-05-25T15:31:07.585Z,7.67
2019-05-25T15:33:37.919Z,5.37
2019-05-25T15:36:08.145Z,4.20
2019-05-25T15:38:38.352Z,4.83
2019-05-25T15:41:08.725Z,6.37
2019-05-25T15:43:57.070Z,5.17
2019-05-25T15:46:27.407Z,10.40
2019-05-25T15:48:58.767Z,6.62
2019-05-25T15:51:30.432Z,6.35
2019-05-25T15:54:02.308Z,5.47
2019-05-25T15:56:32.936Z,5.97
2019-05-25T15:59:23.627Z,5.37
2019-05-25T16:01:53.445Z,6.15
2019-05-25T16:04:23.697Z,6.92
2019-05-25T16:06:54.054Z,5.10
2019-05-25T16:09:24.227Z,7.95
2019-05-25T16:11:54.441Z,5.47
2019-05-25T16:14:42.744Z,4.83
2019-05-25T16:17:12.935Z,6.22
2019-05-25T16:19:43.129Z,5.72
2019-05-25T16:22:13.479Z,6.37
2019-05-25T16:24:43.721Z,7.12
2019-05-25T16:27:13.928Z,5.33
2019-05-25T16:29:44.123Z,6.87
2019-05-25T16:32:14.355Z,4.08
2019-05-25T16:34:44.537Z,5.35
2019-05-25T16:37:14.871Z,3.83
2019-05-25T16:39:45.173Z,5.72
2019-05-25T16:42:15.476Z,5.87
2019-05-25T16:45:06.751Z,5.47
2019-05-25T16:47:37.025Z,6.05
2019-05-25T16:50:08.486Z,3.10
2019-05-25T16:52:38.829Z,4.65
2019-05-25T16:55:09.272Z,4.83
2019-05-25T16:57:39.483Z,8.60
2019-05-25T17:00:29.148Z,6.22
2019-05-25T17:02:59.409Z,6.85
2019-05-25T17:05:29.688Z,11.85
2019-05-25T17:07:59.965Z,7.20
2019-05-25T17:10:30.195Z,5.95
2019-05-25T17:13:51.547Z,3.87
2019-05-25T17:16:35.167Z,8.45
2019-05-25T17:19:05.540Z,6.90
2019-05-25T17:21:35.749Z,8.60
2019-05-25T17:24:06.076Z,10.25
2019-05-25T17:26:36.296Z,10.58
2019-05-25T17:29:06.491Z,10.53
2019-05-25T17:31:36.686Z,9.43
2019-05-25T17:34:07.880Z,12.43
2019-05-25T17:36:38.067Z,12.13
2019-05-25T17:39:08.371Z,6.03
2019-05-25T17:41:40.593Z,8.37
2019-05-25T17:44:10.876Z,11.05
2019-05-25T17:46:41.072Z,12.07
2019-05-25T17:49:11.391Z,7.30
2019-05-25T17:51:41.585Z,8.90
2019-05-25T17:54:11.913Z,11.20
2019-05-25T17:56:42.123Z,11.35
2019-05-25T17:59:12.349Z,11.03
2019-05-25T18:01:42.569Z,14.00
2019-05-25T18:04:12.906Z,13.75
2019-05-25T18:06:43.179Z,10.38
2019-05-25T18:09:13.386Z,7.37
2019-05-25T18:11:43.606Z,5.62
2019-05-25T18:14:13.861Z,13.05
2019-05-25T18:16:44.153Z,10.18
2019-05-25T18:19:14.345Z,8.83
2019-05-25T18:21:44.913Z,6.15
2019-05-25T18:24:15.507Z,12.70
2019-05-25T18:26:46.092Z,8.55
2019-05-25T18:33:07.098Z,13.88
2019-05-25T18:35:37.343Z,9.00
2019-05-25T18:38:07.620Z,11.70
2019-05-25T18:40:38.213Z,10.13
2019-05-25T18:43:08.559Z,9.93
2019-05-25T18:49:20.828Z,13.78
2019-05-25T18:51:51.111Z,14.03
2019-05-25T18:54:21.715Z,13.35
2019-05-25T18:56:51.959Z,9.50
2019-05-25T18:59:22.287Z,12.28
2019-05-25T19:02:51.299Z,10.08
2019-05-25T19:05:21.511Z,13.13
2019-05-25T19:07:51.751Z,18.23
2019-05-25T19:10:21.963Z,17.15
2019-05-25T19:12:52.160Z,10.38
2019-05-25T19:15:43.151Z,12.98
2019-05-25T19:18:14.413Z,11.03
2019-05-25T19:20:44.654Z,13.55
2019-05-25T19:23:14.874Z,11.97
2019-05-25T19:25:45.093Z,14.03
2019-05-25T19:28:15.319Z,13.80
2019-05-25T19:30:45.605Z,14.55
2019-05-25T19:33:15.821Z,11.12
2019-05-25T19:35:46.077Z,15.28
2019-05-25T19:38:16.283Z,17.20
2019-05-25T19:40:46.483Z,12.23
2019-05-25T19:43:16.698Z,14.05
2019-05-25T19:45:47.563Z,14.85
2019-05-25T19:48:17.979Z,11.05
2019-05-25T19:50:48.355Z,12.10
2019-05-25T19:53:37.999Z,10.93
2019-05-25T19:56:08.211Z,11.95
2019-05-25T19:58:38.458Z,13.28
2019-05-25T20:05:15.955Z,14.73
2019-05-25T20:07:36.399Z,13.35
2019-05-25T20:12:37.318Z,14.80
2019-05-25T20:15:08.234Z,12.40
2019-05-25T20:17:58.493Z,15.85
2019-05-25T20:20:28.768Z,12.50
2019-05-25T20:22:59.162Z,12.70
2019-05-25T20:25:29.473Z,12.45
2019-05-25T20:27:59.672Z,9.35
2019-05-25T20:34:11.491Z,13.98
2019-05-25T20:36:41.788Z,15.15
2019-05-25T20:39:12.071Z,17.42
2019-05-25T20:41:42.295Z,14.63
2019-05-25T20:44:12.488Z,12.35
2019-05-25T20:47:04.093Z,10.53
2019-05-25T20:49:34.433Z,15.53
2019-05-25T20:52:04.744Z,12.78
2019-05-25T20:54:34.933Z,22.45
2019-05-25T20:57:05.316Z,20.77
2019-05-25T20:59:36.799Z,14.13
2019-05-25T21:02:07.030Z,16.37
2019-05-25T21:04:37.286Z,11.93
2019-05-25T21:07:07.583Z,14.07
2019-05-25T21:09:37.915Z,14.20
2019-05-25T21:12:09.901Z,13.98
2019-05-25T21:14:40.236Z,16.50
2019-05-25T21:17:10.527Z,16.20
2019-05-25T21:19:40.785Z,16.00
2019-05-25T21:22:11.074Z,14.30
2019-05-25T21:24:41.403Z,18.10
2019-05-25T21:27:11.659Z,12.73
2019-05-25T21:29:41.893Z,18.15
2019-05-25T21:32:12.180Z,14.55
2019-05-25T21:34:42.379Z,16.45
2019-05-25T21:37:12.589Z,14.60
2019-05-25T21:39:42.796Z,14.45
2019-05-25T21:42:13.037Z,13.72
2019-05-25T21:44:43.218Z,15.90
2019-05-25T21:47:13.515Z,15.70
2019-05-25T21:49:43.767Z,19.65
2019-05-25T21:52:14.071Z,18.55
2019-05-25T21:54:44.313Z,12.20
2019-05-25T21:57:14.519Z,11.28
2019-05-25T21:59:44.720Z,22.42
2019-05-25T22:02:50.995Z,13.88
2019-05-25T22:05:21.268Z,12.13
2019-05-25T22:07:51.622Z,20.35
2019-05-25T22:10:21.815Z,20.57
2019-05-25T22:12:52.019Z,16.25
2019-05-25T22:15:22.303Z,30.37
2019-05-25T22:17:52.518Z,21.02
2019-05-25T22:20:22.719Z,24.12
2019-05-25T22:22:52.945Z,20.80
2019-05-25T22:25:23.199Z,19.87
2019-05-25T22:27:53.416Z,17.92
2019-05-25T22:30:23.615Z,14.70
2019-05-25T22:33:11.858Z,21.68
2019-05-25T22:35:42.070Z,13.80
2019-05-25T22:38:12.525Z,19.62
2019-05-25T22:40:42.997Z,15.78
2019-05-25T22:43:13.303Z,22.05
2019-05-25T22:45:43.518Z,17.25
2019-05-25T22:48:13.823Z,20.52
2019-05-25T22:50:44.019Z,20.60
2019-05-25T22:53:14.243Z,19.25
2019-05-25T22:55:44.450Z,23.60
2019-05-25T22:58:14.654Z,23.70
2019-05-25T23:00:44.864Z,19.70
2019-05-25T23:03:16.084Z,19.80
2019-05-25T23:05:46.288Z,17.15
2019-05-25T23:08:16.571Z,23.70
2019-05-25T23:10:46.762Z,23.00
2019-05-25T23:13:16.986Z,22.15
2019-05-25T23:15:47.191Z,21.45
2019-05-25T23:18:37.431Z,21.23
2019-05-25T23:21:07.703Z,22.65
2019-05-25T23:23:37.933Z,20.37
2019-05-25T23:26:08.191Z,23.30
2019-05-25T23:28:38.476Z,21.90
2019-05-25T23:31:08.671Z,19.10
2019-05-25T23:33:39.031Z,18.05
2019-05-25T23:36:09.230Z,17.98
2019-05-25T23:38:39.444Z,13.45
2019-05-25T23:41:10.694Z,15.43
2019-05-25T23:43:40.914Z,13.08
2019-05-25T23:46:11.109Z,16.48
2019-05-25T23:48:56.533Z,14.33
2019-05-25T23:51:26.734Z,12.13
2019-05-25T23:53:56.951Z,13.60
2019-05-25T23:56:27.143Z,12.73
2019-05-25T23:58:57.448Z,14.15
